createdAt,value
2022-08-30T00:02:20.832Z,8.07
2022-08-30T00:04:48.389Z,8.07
2022-08-30T00:07:15.679Z,8.02
2022-08-30T00:09:42.599Z,7.63
2022-08-30T00:12:09.841Z,7.70
2022-08-30T00:14:37.436Z,7.45
2022-08-30T00:17:04.850Z,7.88
2022-08-30T00:19:31.809Z,7.68
2022-08-30T00:21:58.869Z,8.35
2022-08-30T00:24:25.753Z,7.68
2022-08-30T00:26:52.903Z,7.80
2022-08-30T00:29:19.918Z,7.93
2022-08-30T00:31:47.036Z,7.45
2022-08-30T00:34:14.293Z,8.40
2022-08-30T00:36:41.194Z,8.02
2022-08-30T00:39:08.162Z,8.90
2022-08-30T00:41:35.237Z,9.13
2022-08-30T00:44:04.497Z,8.75
2022-08-30T00:46:32.414Z,9.60
2022-08-30T00:49:02.841Z,8.65
2022-08-30T00:51:31.829Z,8.68
2022-08-30T00:53:59.218Z,8.35
2022-08-30T00:56:27.865Z,8.45
2022-08-30T00:58:59.176Z,8.57
2022-08-30T01:01:27.438Z,8.70
2022-08-30T01:03:58.023Z,9.10
2022-08-30T01:06:26.148Z,9.07
2022-08-30T01:09:01.939Z,8.60
2022-08-30T01:11:29.462Z,8.63
2022-08-30T01:13:57.940Z,8.35
2022-08-30T01:16:25.963Z,9.00
2022-08-30T01:18:58.144Z,8.90
2022-08-30T01:21:37.024Z,8.57
2022-08-30T01:24:05.718Z,8.32
2022-08-30T01:26:34.657Z,8.00
2022-08-30T01:33:20.932Z,8.23
2022-08-30T01:35:57.470Z,8.43
2022-08-30T01:38:28.665Z,8.38
2022-08-30T01:41:00.818Z,7.68
2022-08-30T01:43:28.892Z,8.35
2022-08-30T01:45:55.902Z,8.45
2022-08-30T01:48:22.873Z,7.95
2022-08-30T01:50:58.739Z,8.05
2022-08-30T01:53:26.258Z,8.15
2022-08-30T01:55:53.203Z,8.32
2022-08-30T01:58:20.157Z,7.05
2022-08-30T02:00:47.154Z,7.50
2022-08-30T02:03:14.198Z,7.80
2022-08-30T02:05:41.273Z,7.72
2022-08-30T02:08:08.093Z,7.97
2022-08-30T02:10:35.240Z,8.38
2022-08-30T02:13:03.087Z,9.45
2022-08-30T02:15:30.270Z,10.30
2022-08-30T02:18:01.375Z,9.52
2022-08-30T02:20:28.599Z,10.45
2022-08-30T02:22:58.538Z,10.00
2022-08-30T02:25:27.661Z,9.40
2022-08-30T02:27:54.515Z,9.02
2022-08-30T02:30:21.613Z,8.63
2022-08-30T02:32:48.567Z,8.13
2022-08-30T02:35:15.862Z,8.55
2022-08-30T02:37:42.944Z,7.90
2022-08-30T02:40:10.896Z,7.65
2022-08-30T02:42:37.957Z,8.20
2022-08-30T02:45:05.483Z,8.68
2022-08-30T02:47:32.379Z,8.77
2022-08-30T02:49:59.246Z,9.00
2022-08-30T02:52:27.932Z,9.05
2022-08-30T02:54:55.418Z,7.90
2022-08-30T02:57:22.905Z,8.05
2022-08-30T02:59:50.182Z,8.90
2022-08-30T03:02:17.699Z,8.93
2022-08-30T03:04:45.057Z,8.70
2022-08-30T03:07:12.825Z,8.80
2022-08-30T03:09:40.793Z,9.90
2022-08-30T03:12:08.917Z,10.15
2022-08-30T03:14:38.347Z,10.60
2022-08-30T03:17:07.883Z,11.93
2022-08-30T03:19:42.497Z,10.73
2022-08-30T03:22:11.369Z,10.88
2022-08-30T03:24:38.580Z,10.65
2022-08-30T03:27:05.605Z,10.80
2022-08-30T03:29:32.538Z,10.77
2022-08-30T03:31:59.489Z,10.13
2022-08-30T03:34:27.961Z,10.63
2022-08-30T03:36:56.248Z,11.23
2022-08-30T03:39:24.657Z,11.07
2022-08-30T03:41:52.117Z,11.13
2022-08-30T03:44:19.641Z,10.23
2022-08-30T03:46:47.215Z,9.77
2022-08-30T03:49:14.298Z,9.57
2022-08-30T03:51:41.209Z,11.20
2022-08-30T03:54:08.296Z,9.38
2022-08-30T03:56:35.248Z,8.48
2022-08-30T03:59:02.556Z,8.25
2022-08-30T04:01:29.490Z,6.85
2022-08-30T04:03:56.694Z,5.45
2022-08-30T04:06:23.906Z,4.82
2022-08-30T04:08:50.791Z,5.07
2022-08-30T04:11:17.885Z,5.50
2022-08-30T04:13:44.813Z,5.13
2022-08-30T04:16:11.785Z,4.82
2022-08-30T04:18:38.997Z,5.32
2022-08-30T04:21:06.540Z,5.20
2022-08-30T04:23:33.808Z,5.10
2022-08-30T04:26:00.725Z,5.35
2022-08-30T04:28:27.908Z,5.07
2022-08-30T04:30:54.856Z,4.80
2022-08-30T04:33:21.908Z,4.72
2022-08-30T04:35:50.226Z,4.30
2022-08-30T04:38:17.806Z,4.45
2022-08-30T04:40:48.610Z,4.05
2022-08-30T04:43:16.263Z,4.07
2022-08-30T04:45:43.550Z,4.05
2022-08-30T04:48:10.539Z,4.13
2022-08-30T04:50:37.785Z,3.95
2022-08-30T04:53:13.395Z,3.92
2022-08-30T04:55:41.305Z,3.85
2022-08-30T04:58:08.234Z,3.47
2022-08-30T05:00:37.275Z,3.33
2022-08-30T05:03:04.845Z,2.35
2022-08-30T05:05:40.897Z,2.80
2022-08-30T05:08:13.597Z,2.65
2022-08-30T05:10:43.585Z,2.85
2022-08-30T05:13:11.347Z,2.80
2022-08-30T05:15:39.711Z,2.63
2022-08-30T05:18:07.951Z,2.30
2022-08-30T05:20:39.446Z,2.28
2022-08-30T05:23:06.887Z,2.20
2022-08-30T05:25:37.903Z,2.55
2022-08-30T05:28:05.938Z,2.78
2022-08-30T05:30:36.157Z,2.40
2022-08-30T05:33:03.377Z,2.30
2022-08-30T05:35:30.376Z,2.40
2022-08-30T05:37:57.706Z,2.50
2022-08-30T05:40:25.326Z,2.30
2022-08-30T05:42:52.357Z,2.67
2022-08-30T05:45:19.408Z,2.70
2022-08-30T05:47:47.812Z,2.15
2022-08-30T05:50:15.499Z,1.90
2022-08-30T05:52:45.039Z,2.20
2022-08-30T05:55:12.515Z,2.08
2022-08-30T05:57:59.499Z,2.20
2022-08-30T06:00:27.000Z,2.55
2022-08-30T06:02:54.881Z,2.35
2022-08-30T06:05:22.060Z,2.50
2022-08-30T06:07:49.767Z,1.95
2022-08-30T06:10:16.868Z,2.10
2022-08-30T06:12:44.304Z,1.80
2022-08-30T06:15:12.013Z,1.85
2022-08-30T06:17:39.830Z,1.95
2022-08-30T06:20:07.728Z,2.00
2022-08-30T06:22:35.021Z,1.88
2022-08-30T06:25:02.019Z,1.65
2022-08-30T06:27:28.916Z,1.83
2022-08-30T06:29:55.865Z,1.73
2022-08-30T06:32:23.012Z,1.90
2022-08-30T06:34:50.317Z,1.92
2022-08-30T06:37:29.178Z,1.95
2022-08-30T06:39:58.458Z,1.90
2022-08-30T06:42:31.770Z,1.83
2022-08-30T06:45:00.082Z,2.22
2022-08-30T06:47:27.563Z,1.83
2022-08-30T06:49:54.598Z,2.10
2022-08-30T06:52:22.137Z,1.80
2022-08-30T06:54:49.636Z,1.90
2022-08-30T06:57:18.203Z,2.15
2022-08-30T06:59:45.222Z,1.92
2022-08-30T07:02:12.346Z,1.88
2022-08-30T07:04:39.317Z,1.80
2022-08-30T07:07:06.218Z,2.08
2022-08-30T07:12:04.066Z,2.10
2022-08-30T07:14:31.213Z,1.92
2022-08-30T07:16:58.083Z,2.55
2022-08-30T07:19:25.005Z,1.70
2022-08-30T07:21:51.939Z,1.77
2022-08-30T07:24:19.560Z,2.05
2022-08-30T07:26:51.682Z,1.95
2022-08-30T07:29:37.651Z,1.63
2022-08-30T07:32:05.255Z,2.00
2022-08-30T07:34:32.171Z,1.88
2022-08-30T07:36:59.271Z,2.33
2022-08-30T07:39:26.204Z,1.83
2022-08-30T07:41:53.110Z,2.17
2022-08-30T07:44:20.025Z,2.25
2022-08-30T07:46:50.226Z,2.00
2022-08-30T07:49:18.090Z,1.98
2022-08-30T07:51:45.266Z,2.25
2022-08-30T07:54:12.816Z,2.47
2022-08-30T07:56:39.829Z,2.10
2022-08-30T07:59:06.761Z,2.10
2022-08-30T08:01:33.733Z,2.28
2022-08-30T08:04:00.872Z,1.80
2022-08-30T08:10:46.750Z,2.05
2022-08-30T08:13:13.834Z,2.50
2022-08-30T08:15:40.853Z,2.40
2022-08-30T08:18:07.845Z,2.40
2022-08-30T08:20:35.703Z,1.98
2022-08-30T08:23:03.110Z,2.10
2022-08-30T08:25:30.516Z,2.05
2022-08-30T08:27:58.297Z,2.00
2022-08-30T08:30:25.230Z,2.10
2022-08-30T08:32:52.625Z,2.38
2022-08-30T08:35:19.709Z,2.55
2022-08-30T08:37:46.715Z,2.40
2022-08-30T08:40:19.599Z,2.20
2022-08-30T08:43:05.305Z,2.20
2022-08-30T08:45:32.145Z,2.10
2022-08-30T08:48:04.913Z,2.17
2022-08-30T08:50:32.401Z,2.13
2022-08-30T08:53:46.247Z,2.40
2022-08-30T08:56:17.146Z,2.22
2022-08-30T08:58:50.467Z,1.80
2022-08-30T09:01:21.233Z,2.00
2022-08-30T09:03:49.684Z,2.38
2022-08-30T09:06:48.885Z,2.38
2022-08-30T09:09:20.420Z,2.50
2022-08-30T09:11:48.453Z,2.53
2022-08-30T09:14:20.477Z,2.38
2022-08-30T09:16:58.995Z,2.40
2022-08-30T09:19:42.753Z,2.40
2022-08-30T09:22:47.858Z,2.28
2022-08-30T09:25:30.573Z,2.78
2022-08-30T09:28:12.512Z,3.13
2022-08-30T09:30:40.005Z,3.15
2022-08-30T09:37:33.313Z,2.42
2022-08-30T09:40:00.876Z,3.75
2022-08-30T09:42:30.116Z,2.65
2022-08-30T09:45:10.644Z,3.20
2022-08-30T09:47:43.254Z,3.53
2022-08-30T09:50:19.910Z,3.53
2022-08-30T09:53:09.978Z,3.40
2022-08-30T09:56:10.210Z,3.00
2022-08-30T09:58:52.291Z,3.28
2022-08-30T10:01:26.821Z,3.55
2022-08-30T10:04:12.903Z,3.45
2022-08-30T10:07:05.988Z,3.30
2022-08-30T10:09:45.622Z,3.20
2022-08-30T10:12:31.230Z,3.65
2022-08-30T10:15:26.111Z,3.30
2022-08-30T10:20:41.853Z,2.83
2022-08-30T10:23:52.879Z,3.70
2022-08-30T10:26:28.542Z,3.55
2022-08-30T10:29:14.781Z,3.50
2022-08-30T10:31:58.369Z,3.10
2022-08-30T10:34:30.496Z,3.33
2022-08-30T10:37:08.876Z,3.47
2022-08-30T10:39:43.266Z,3.70
2022-08-30T10:42:21.640Z,3.13
2022-08-30T10:45:13.391Z,3.40
2022-08-30T10:48:24.944Z,3.25
2022-08-30T10:50:56.804Z,3.45
2022-08-30T10:53:43.398Z,3.30
2022-08-30T10:56:16.473Z,3.22
2022-08-30T10:58:44.227Z,3.30
2022-08-30T11:01:28.524Z,3.40
2022-08-30T11:04:14.318Z,3.35
2022-08-30T11:06:47.151Z,3.20
2022-08-30T11:09:38.695Z,3.45
2022-08-30T11:12:50.433Z,3.03
2022-08-30T11:15:31.440Z,4.00
2022-08-30T11:18:00.160Z,3.10
2022-08-30T11:20:36.203Z,3.78
2022-08-30T11:23:20.042Z,3.70
2022-08-30T11:25:57.747Z,3.25
2022-08-30T11:28:37.440Z,3.45
2022-08-30T11:31:10.166Z,3.63
2022-08-30T11:33:46.034Z,3.35
2022-08-30T11:40:35.030Z,2.72
2022-08-30T11:43:33.780Z,3.00
2022-08-30T11:46:28.337Z,2.97
2022-08-30T11:49:06.451Z,2.97
2022-08-30T11:51:44.345Z,3.17
2022-08-30T11:54:17.407Z,3.05
2022-08-30T11:56:44.251Z,2.85
2022-08-30T11:59:25.913Z,3.00
2022-08-30T12:01:53.117Z,3.03
2022-08-30T12:04:20.231Z,3.03
2022-08-30T12:06:59.179Z,2.72
2022-08-30T12:09:26.562Z,2.90
2022-08-30T12:16:22.022Z,3.65
2022-08-30T12:19:00.861Z,2.78
2022-08-30T12:21:44.838Z,3.10
2022-08-30T12:24:22.296Z,3.08
2022-08-30T12:26:51.508Z,3.40
2022-08-30T12:29:18.412Z,3.30
2022-08-30T12:32:05.391Z,3.22
2022-08-30T12:34:41.791Z,3.38
2022-08-30T12:37:08.933Z,3.22
2022-08-30T12:39:38.811Z,3.20
2022-08-30T12:42:14.648Z,3.33
2022-08-30T12:44:45.475Z,3.22
2022-08-30T12:47:13.917Z,3.28
2022-08-30T12:49:42.159Z,3.33
2022-08-30T12:52:26.325Z,3.58
2022-08-30T12:54:55.253Z,3.47
2022-08-30T12:58:07.433Z,4.10
2022-08-30T13:00:37.697Z,3.78
2022-08-30T13:03:25.235Z,3.88
2022-08-30T13:05:53.333Z,3.53
2022-08-30T13:08:36.730Z,3.67
2022-08-30T13:11:24.951Z,3.65
2022-08-30T13:14:33.720Z,3.55
2022-08-30T13:17:21.446Z,3.75
2022-08-30T13:20:08.278Z,3.38
2022-08-30T13:22:40.984Z,3.67
2022-08-30T13:25:10.184Z,3.90
2022-08-30T13:27:39.265Z,4.05
2022-08-30T13:30:14.661Z,3.83
2022-08-30T13:32:42.345Z,3.35
2022-08-30T13:35:11.089Z,3.95
2022-08-30T13:37:50.477Z,3.55
2022-08-30T13:40:19.851Z,4.00
2022-08-30T13:42:46.953Z,4.60
2022-08-30T13:48:02.569Z,4.40
2022-08-30T13:50:30.417Z,4.22
2022-08-30T13:52:58.029Z,5.35
2022-08-30T13:55:25.228Z,4.07
2022-08-30T13:57:54.526Z,5.00
2022-08-30T14:00:23.575Z,4.57
2022-08-30T14:02:57.737Z,4.60
2022-08-30T14:05:50.577Z,4.00
2022-08-30T14:11:12.787Z,4.90
2022-08-30T14:16:31.751Z,4.80
2022-08-30T14:19:00.347Z,5.28
2022-08-30T14:21:28.064Z,4.30
2022-08-30T14:23:57.704Z,4.97
2022-08-30T14:26:38.261Z,4.32
2022-08-30T14:29:09.794Z,4.78
2022-08-30T14:31:40.376Z,4.40
2022-08-30T14:34:09.500Z,5.03
2022-08-30T14:36:40.522Z,4.45
2022-08-30T14:39:11.899Z,4.90
2022-08-30T14:41:53.158Z,4.28
2022-08-30T14:44:22.444Z,4.60
2022-08-30T14:46:51.186Z,5.00
2022-08-30T14:49:19.201Z,4.68
2022-08-30T14:51:48.501Z,4.57
2022-08-30T14:54:17.826Z,5.03
2022-08-30T14:56:44.817Z,5.18
2022-08-30T14:59:12.170Z,4.70
2022-08-30T15:01:41.906Z,4.95
2022-08-30T15:04:10.385Z,4.55
2022-08-30T15:06:39.233Z,4.60
2022-08-30T15:09:09.659Z,4.50
2022-08-30T15:11:38.174Z,4.70
2022-08-30T15:14:06.304Z,4.70
2022-08-30T15:16:36.424Z,5.03
2022-08-30T15:19:05.344Z,5.32
2022-08-30T15:21:35.777Z,5.05
2022-08-30T15:24:05.008Z,4.47
2022-08-30T15:26:31.974Z,4.25
2022-08-30T15:28:59.336Z,4.25
2022-08-30T15:31:28.514Z,4.55
2022-08-30T15:33:55.635Z,4.50
2022-08-30T15:36:25.024Z,3.97
2022-08-30T15:38:55.804Z,4.93
2022-08-30T15:41:23.878Z,4.80
2022-08-30T15:43:52.836Z,4.47
2022-08-30T15:46:29.538Z,4.65
2022-08-30T15:49:00.333Z,5.47
2022-08-30T15:51:27.480Z,5.15
2022-08-30T15:53:54.769Z,4.70
2022-08-30T15:56:22.615Z,4.60
2022-08-30T15:58:49.587Z,4.60
2022-08-30T16:01:20.252Z,5.22
2022-08-30T16:03:57.734Z,4.88
2022-08-30T16:06:29.353Z,5.28
2022-08-30T16:08:56.936Z,5.15
2022-08-30T16:11:25.131Z,4.50
2022-08-30T16:13:56.969Z,4.38
2022-08-30T16:16:24.649Z,5.93
2022-08-30T16:18:54.386Z,4.93
2022-08-30T16:25:40.027Z,4.93
2022-08-30T16:28:09.458Z,4.50
2022-08-30T16:30:36.886Z,4.72
2022-08-30T16:33:04.186Z,4.63
2022-08-30T16:39:52.485Z,4.75
2022-08-30T16:42:21.019Z,5.25
2022-08-30T16:44:49.833Z,5.28
2022-08-30T16:47:17.528Z,5.97
2022-08-30T16:49:44.613Z,5.30
2022-08-30T16:52:12.016Z,5.72
2022-08-30T16:54:38.969Z,5.72
2022-08-30T16:57:06.622Z,5.68
2022-08-30T16:59:33.700Z,5.20
2022-08-30T17:06:20.623Z,6.20
2022-08-30T17:13:11.966Z,6.20
2022-08-30T17:19:57.625Z,6.18
2022-08-30T17:22:24.603Z,6.20
2022-08-30T17:24:53.417Z,6.13
2022-08-30T17:27:20.432Z,5.38
2022-08-30T17:29:48.311Z,5.63
2022-08-30T17:32:15.306Z,5.45
2022-08-30T17:34:42.330Z,5.03
2022-08-30T17:41:28.018Z,5.30
2022-08-30T17:43:54.921Z,5.85
2022-08-30T17:50:36.051Z,7.00
2022-08-30T17:57:29.590Z,6.10
2022-08-30T17:59:57.504Z,6.57
2022-08-30T18:02:30.049Z,8.10
2022-08-30T18:04:58.255Z,8.27
2022-08-30T18:07:26.940Z,8.80
2022-08-30T18:09:54.096Z,7.90
2022-08-30T18:16:53.823Z,9.77
2022-08-30T18:19:23.369Z,9.43
2022-08-30T18:21:50.629Z,8.23
2022-08-30T18:24:18.039Z,8.77
2022-08-30T18:31:12.387Z,8.68
2022-08-30T18:33:39.346Z,8.18
2022-08-30T18:36:08.225Z,8.10
2022-08-30T18:38:35.463Z,8.82
2022-08-30T18:41:06.840Z,10.23
2022-08-30T18:43:37.010Z,9.65
2022-08-30T18:46:06.029Z,9.88
2022-08-30T18:48:33.859Z,8.90
2022-08-30T18:51:02.457Z,9.65
2022-08-30T18:53:29.756Z,9.85
2022-08-30T18:55:57.160Z,10.32
2022-08-30T19:02:44.234Z,10.07
2022-08-30T19:09:37.272Z,9.75
2022-08-30T19:12:05.406Z,9.52
2022-08-30T19:14:37.057Z,9.70
2022-08-30T19:17:06.944Z,8.88
2022-08-30T19:19:34.886Z,9.38
2022-08-30T19:22:03.581Z,10.38
2022-08-30T19:24:30.598Z,9.77
2022-08-30T19:26:59.314Z,9.85
2022-08-30T19:29:26.297Z,9.30
2022-08-30T19:31:53.228Z,10.45
2022-08-30T19:34:20.158Z,9.95
2022-08-30T19:36:48.875Z,10.43
2022-08-30T19:39:15.842Z,10.43
2022-08-30T19:41:44.475Z,11.13
2022-08-30T19:44:11.406Z,9.82
2022-08-30T19:46:38.325Z,9.85
2022-08-30T19:49:07.181Z,10.32
2022-08-30T19:55:52.998Z,12.00
2022-08-30T19:58:20.173Z,11.15
2022-08-30T20:00:54.209Z,10.38
2022-08-30T20:03:28.228Z,10.25
2022-08-30T20:05:55.135Z,9.73
2022-08-30T20:08:22.465Z,9.73
2022-08-30T20:10:49.454Z,9.95
2022-08-30T20:13:23.696Z,9.20
2022-08-30T20:15:58.679Z,9.30
2022-08-30T20:18:26.252Z,8.80
2022-08-30T20:20:53.518Z,8.57
2022-08-30T20:23:22.871Z,9.63
2022-08-30T20:25:55.498Z,10.05
2022-08-30T20:28:24.504Z,10.45
2022-08-30T20:30:53.231Z,9.63
2022-08-30T20:33:21.479Z,8.85
2022-08-30T20:35:49.772Z,9.15
2022-08-30T20:38:21.435Z,8.63
2022-08-30T20:40:53.279Z,8.95
2022-08-30T20:43:22.149Z,8.38
2022-08-30T20:45:49.375Z,9.13
2022-08-30T20:48:17.597Z,8.50
2022-08-30T20:50:44.880Z,9.02
2022-08-30T20:53:14.014Z,8.57
2022-08-30T20:55:45.851Z,8.88
2022-08-30T20:58:14.365Z,9.10
2022-08-30T21:00:45.712Z,9.63
2022-08-30T21:03:27.435Z,9.63
2022-08-30T21:05:55.872Z,10.88
2022-08-30T21:08:22.883Z,10.68
2022-08-30T21:10:49.891Z,11.35
2022-08-30T21:17:30.244Z,11.98
2022-08-30T21:19:57.278Z,11.68
2022-08-30T21:26:43.492Z,11.32
2022-08-30T21:29:11.963Z,11.32
2022-08-30T21:31:38.976Z,12.43
2022-08-30T21:38:20.119Z,12.07
2022-08-30T21:40:48.516Z,11.10
2022-08-30T21:47:34.231Z,10.77
2022-08-30T21:50:01.156Z,10.52
2022-08-30T21:52:28.042Z,10.70
2022-08-30T21:54:54.919Z,11.50
2022-08-30T21:57:21.935Z,10.23
2022-08-30T21:59:48.833Z,11.32
2022-08-30T22:02:15.772Z,11.52
2022-08-30T22:04:42.752Z,11.80
2022-08-30T22:07:09.760Z,11.85
2022-08-30T22:09:37.037Z,11.95
2022-08-30T22:12:07.478Z,12.57
2022-08-30T22:14:35.758Z,13.35
2022-08-30T22:17:02.852Z,12.80
2022-08-30T22:19:31.519Z,13.55
2022-08-30T22:22:01.731Z,13.88
2022-08-30T22:24:31.964Z,14.60
2022-08-30T22:27:01.206Z,15.13
2022-08-30T22:29:29.381Z,14.32
2022-08-30T22:31:56.413Z,13.50
2022-08-30T22:34:23.561Z,14.20
2022-08-30T22:36:50.515Z,15.40
2022-08-30T22:39:18.189Z,15.02
2022-08-30T22:41:45.247Z,14.90
2022-08-30T22:44:12.428Z,14.38
2022-08-30T22:46:39.913Z,15.07
2022-08-30T22:49:09.046Z,14.48
2022-08-30T22:51:36.590Z,14.85
2022-08-30T22:54:04.696Z,14.48
2022-08-30T22:56:33.936Z,14.57
2022-08-30T22:59:01.245Z,12.23
2022-08-30T23:01:32.403Z,11.85
2022-08-30T23:04:01.136Z,12.00
2022-08-30T23:06:29.464Z,11.77
2022-08-30T23:08:56.773Z,11.77
2022-08-30T23:11:23.796Z,10.60
2022-08-30T23:13:51.556Z,11.20
2022-08-30T23:16:20.247Z,10.93
2022-08-30T23:18:47.481Z,10.55
2022-08-30T23:21:23.560Z,10.18
2022-08-30T23:24:10.758Z,10.40
2022-08-30T23:26:57.817Z,10.10
2022-08-30T23:29:43.720Z,9.82
2022-08-30T23:32:29.011Z,10.93
2022-08-30T23:35:14.995Z,11.02
2022-08-30T23:38:00.350Z,10.85
2022-08-30T23:40:46.281Z,10.32
2022-08-30T23:43:32.094Z,11.10
2022-08-30T23:46:19.416Z,10.45
2022-08-30T23:49:06.823Z,11.70
2022-08-30T23:51:53.227Z,10.15
2022-08-30T23:54:38.531Z,10.00
2022-08-30T23:57:24.303Z,10.70
